sensor_id;sensor_type;location;lat;lon;timestamp;P1;durP1;ratioP1;P2;durP2;ratioP2
14754;SDS011;7469;50.906;6.952;2023-04-08T00:02:24;13.83;;;7.20;;
14754;SDS011;7469;50.906;6.952;2023-04-08T00:04:53;14.33;;;7.40;;
14754;SDS011;7469;50.906;6.952;2023-04-08T00:07:21;15.63;;;8.37;;
14754;SDS011;7469;50.906;6.952;2023-04-08T00:09:51;11.70;;;8.17;;
14754;SDS011;7469;50.906;6.952;2023-04-08T00:12:19;14.23;;;7.50;;
14754;SDS011;7469;50.906;6.952;2023-04-08T00:14:47;13.67;;;6.97;;
14754;SDS011;7469;50.906;6.952;2023-04-08T00:17:15;14.00;;;7.67;;
14754;SDS011;7469;50.906;6.952;2023-04-08T00:19:43;14.53;;;6.97;;
14754;SDS011;7469;50.906;6.952;2023-04-08T00:22:11;15.40;;;8.27;;
14754;SDS011;7469;50.906;6.952;2023-04-08T00:24:39;12.73;;;8.03;;
14754;SDS011;7469;50.906;6.952;2023-04-08T00:27:08;13.43;;;7.57;;
14754;SDS011;7469;50.906;6.952;2023-04-08T00:29:36;11.80;;;7.33;;
14754;SDS011;7469;50.906;6.952;2023-04-08T00:32:04;14.73;;;7.50;;
14754;SDS011;7469;50.906;6.952;2023-04-08T00:34:32;10.43;;;7.23;;
14754;SDS011;7469;50.906;6.952;2023-04-08T00:37:00;15.47;;;7.37;;
14754;SDS011;7469;50.906;6.952;2023-04-08T00:39:28;14.97;;;8.17;;
14754;SDS011;7469;50.906;6.952;2023-04-08T00:41:56;13.80;;;7.50;;
14754;SDS011;7469;50.906;6.952;2023-04-08T00:44:25;12.97;;;7.00;;
14754;SDS011;7469;50.906;6.952;2023-04-08T00:46:53;13.47;;;6.87;;
14754;SDS011;7469;50.906;6.952;2023-04-08T00:49:21;13.63;;;7.37;;
14754;SDS011;7469;50.906;6.952;2023-04-08T00:51:49;13.53;;;7.20;;
14754;SDS011;7469;50.906;6.952;2023-04-08T00:54:17;15.10;;;6.37;;
14754;SDS011;7469;50.906;6.952;2023-04-08T00:56:45;13.97;;;7.73;;
14754;SDS011;7469;50.906;6.952;2023-04-08T00:59:13;12.27;;;7.13;;
14754;SDS011;7469;50.906;6.952;2023-04-08T01:01:46;14.03;;;7.50;;
14754;SDS011;7469;50.906;6.952;2023-04-08T01:04:21;13.83;;;7.50;;
14754;SDS011;7469;50.906;6.952;2023-04-08T01:06:56;15.40;;;7.27;;
14754;SDS011;7469;50.906;6.952;2023-04-08T01:09:31;17.87;;;7.60;;
14754;SDS011;7469;50.906;6.952;2023-04-08T01:12:02;18.80;;;8.40;;
14754;SDS011;7469;50.906;6.952;2023-04-08T01:14:34;15.00;;;7.77;;
14754;SDS011;7469;50.906;6.952;2023-04-08T01:17:07;11.17;;;7.53;;
14754;SDS011;7469;50.906;6.952;2023-04-08T01:19:37;16.97;;;7.57;;
14754;SDS011;7469;50.906;6.952;2023-04-08T01:22:09;15.73;;;7.87;;
14754;SDS011;7469;50.906;6.952;2023-04-08T01:24:49;17.07;;;7.93;;
14754;SDS011;7469;50.906;6.952;2023-04-08T01:27:20;13.50;;;9.00;;
14754;SDS011;7469;50.906;6.952;2023-04-08T01:29:48;16.17;;;7.50;;
14754;SDS011;7469;50.906;6.952;2023-04-08T01:32:17;17.77;;;8.27;;
14754;SDS011;7469;50.906;6.952;2023-04-08T01:34:45;13.47;;;8.33;;
14754;SDS011;7469;50.906;6.952;2023-04-08T01:37:14;13.30;;;7.37;;
14754;SDS011;7469;50.906;6.952;2023-04-08T01:39:43;11.20;;;8.50;;
14754;SDS011;7469;50.906;6.952;2023-04-08T01:42:11;20.87;;;8.63;;
14754;SDS011;7469;50.906;6.952;2023-04-08T01:44:41;18.17;;;8.10;;
14754;SDS011;7469;50.906;6.952;2023-04-08T01:47:10;20.03;;;8.87;;
14754;SDS011;7469;50.906;6.952;2023-04-08T01:49:40;19.60;;;8.30;;
14754;SDS011;7469;50.906;6.952;2023-04-08T01:52:09;16.30;;;8.40;;
14754;SDS011;7469;50.906;6.952;2023-04-08T01:54:38;16.20;;;7.90;;
14754;SDS011;7469;50.906;6.952;2023-04-08T01:57:07;15.63;;;8.90;;
14754;SDS011;7469;50.906;6.952;2023-04-08T01:59:38;17.00;;;8.33;;
14754;SDS011;7469;50.906;6.952;2023-04-08T02:02:11;15.43;;;7.93;;
14754;SDS011;7469;50.906;6.952;2023-04-08T02:04:39;15.57;;;8.23;;
14754;SDS011;7469;50.906;6.952;2023-04-08T02:07:08;18.30;;;8.70;;
14754;SDS011;7469;50.906;6.952;2023-04-08T02:09:36;21.87;;;11.60;;
14754;SDS011;7469;50.906;6.952;2023-04-08T02:12:04;19.57;;;9.87;;
14754;SDS011;7469;50.906;6.952;2023-04-08T02:14:32;15.97;;;9.87;;
14754;SDS011;7469;50.906;6.952;2023-04-08T02:17:01;21.50;;;10.63;;
14754;SDS011;7469;50.906;6.952;2023-04-08T02:19:36;17.60;;;10.50;;
14754;SDS011;7469;50.906;6.952;2023-04-08T02:22:10;20.60;;;10.77;;
14754;SDS011;7469;50.906;6.952;2023-04-08T02:24:43;21.27;;;10.37;;
14754;SDS011;7469;50.906;6.952;2023-04-08T02:27:13;22.03;;;10.00;;
14754;SDS011;7469;50.906;6.952;2023-04-08T02:29:42;19.57;;;10.63;;
14754;SDS011;7469;50.906;6.952;2023-04-08T02:32:12;19.87;;;10.37;;
14754;SDS011;7469;50.906;6.952;2023-04-08T02:34:44;23.47;;;9.87;;
14754;SDS011;7469;50.906;6.952;2023-04-08T02:37:13;15.60;;;10.00;;
14754;SDS011;7469;50.906;6.952;2023-04-08T02:39:41;18.60;;;10.10;;
14754;SDS011;7469;50.906;6.952;2023-04-08T02:42:09;20.57;;;11.03;;
14754;SDS011;7469;50.906;6.952;2023-04-08T02:44:37;18.77;;;10.10;;
14754;SDS011;7469;50.906;6.952;2023-04-08T02:47:05;21.27;;;10.20;;
14754;SDS011;7469;50.906;6.952;2023-04-08T02:49:33;20.97;;;9.57;;
14754;SDS011;7469;50.906;6.952;2023-04-08T02:52:02;19.57;;;9.53;;
14754;SDS011;7469;50.906;6.952;2023-04-08T02:54:30;20.37;;;9.93;;
14754;SDS011;7469;50.906;6.952;2023-04-08T02:56:58;17.07;;;10.40;;
14754;SDS011;7469;50.906;6.952;2023-04-08T02:59:26;17.60;;;10.03;;
14754;SDS011;7469;50.906;6.952;2023-04-08T03:01:54;19.83;;;10.47;;
14754;SDS011;7469;50.906;6.952;2023-04-08T03:04:23;22.27;;;10.07;;
14754;SDS011;7469;50.906;6.952;2023-04-08T03:06:51;19.40;;;10.23;;
14754;SDS011;7469;50.906;6.952;2023-04-08T03:09:20;20.70;;;10.60;;
14754;SDS011;7469;50.906;6.952;2023-04-08T03:11:48;23.03;;;11.30;;
14754;SDS011;7469;50.906;6.952;2023-04-08T03:14:18;16.47;;;10.03;;
14754;SDS011;7469;50.906;6.952;2023-04-08T03:16:47;15.80;;;10.77;;
14754;SDS011;7469;50.906;6.952;2023-04-08T03:19:16;17.80;;;10.87;;
14754;SDS011;7469;50.906;6.952;2023-04-08T03:21:44;19.90;;;11.00;;
14754;SDS011;7469;50.906;6.952;2023-04-08T03:24:12;15.17;;;11.10;;
14754;SDS011;7469;50.906;6.952;2023-04-08T03:26:41;21.10;;;11.80;;
14754;SDS011;7469;50.906;6.952;2023-04-08T03:29:09;23.63;;;12.53;;
14754;SDS011;7469;50.906;6.952;2023-04-08T03:31:37;18.70;;;10.93;;
14754;SDS011;7469;50.906;6.952;2023-04-08T03:34:05;25.27;;;11.90;;
14754;SDS011;7469;50.906;6.952;2023-04-08T03:36:33;17.63;;;11.37;;
14754;SDS011;7469;50.906;6.952;2023-04-08T03:39:01;17.73;;;11.80;;
14754;SDS011;7469;50.906;6.952;2023-04-08T03:41:31;20.20;;;10.87;;
14754;SDS011;7469;50.906;6.952;2023-04-08T03:44:00;19.73;;;12.97;;
14754;SDS011;7469;50.906;6.952;2023-04-08T03:46:28;18.60;;;12.13;;
14754;SDS011;7469;50.906;6.952;2023-04-08T03:48:56;18.40;;;12.37;;
14754;SDS011;7469;50.906;6.952;2023-04-08T03:51:24;20.73;;;11.97;;
14754;SDS011;7469;50.906;6.952;2023-04-08T03:53:53;19.67;;;12.00;;
14754;SDS011;7469;50.906;6.952;2023-04-08T03:56:21;19.83;;;12.03;;
14754;SDS011;7469;50.906;6.952;2023-04-08T03:58:50;21.00;;;13.13;;
14754;SDS011;7469;50.906;6.952;2023-04-08T04:01:19;17.93;;;11.80;;
14754;SDS011;7469;50.906;6.952;2023-04-08T04:03:47;16.70;;;12.33;;
14754;SDS011;7469;50.906;6.952;2023-04-08T04:06:15;19.03;;;12.40;;
14754;SDS011;7469;50.906;6.952;2023-04-08T04:08:43;21.33;;;11.70;;
14754;SDS011;7469;50.906;6.952;2023-04-08T04:11:11;19.83;;;12.47;;
14754;SDS011;7469;50.906;6.952;2023-04-08T04:13:39;22.77;;;12.13;;
14754;SDS011;7469;50.906;6.952;2023-04-08T04:16:07;19.07;;;12.57;;
14754;SDS011;7469;50.906;6.952;2023-04-08T04:18:36;18.60;;;11.63;;
14754;SDS011;7469;50.906;6.952;2023-04-08T04:21:04;21.53;;;12.53;;
14754;SDS011;7469;50.906;6.952;2023-04-08T04:23:33;22.17;;;12.83;;
14754;SDS011;7469;50.906;6.952;2023-04-08T04:26:01;21.00;;;12.83;;
14754;SDS011;7469;50.906;6.952;2023-04-08T04:28:29;20.93;;;12.30;;
14754;SDS011;7469;50.906;6.952;2023-04-08T04:30:57;25.00;;;12.97;;
14754;SDS011;7469;50.906;6.952;2023-04-08T04:33:24;19.20;;;12.03;;
14754;SDS011;7469;50.906;6.952;2023-04-08T04:35:54;23.80;;;13.17;;
14754;SDS011;7469;50.906;6.952;2023-04-08T04:38:22;21.03;;;12.60;;
14754;SDS011;7469;50.906;6.952;2023-04-08T04:40:50;20.73;;;12.57;;
14754;SDS011;7469;50.906;6.952;2023-04-08T04:43:18;25.87;;;14.10;;
14754;SDS011;7469;50.906;6.952;2023-04-08T04:45:46;21.63;;;13.63;;
14754;SDS011;7469;50.906;6.952;2023-04-08T04:48:14;23.07;;;13.47;;
14754;SDS011;7469;50.906;6.952;2023-04-08T04:50:42;24.63;;;13.67;;
14754;SDS011;7469;50.906;6.952;2023-04-08T04:53:11;22.37;;;13.80;;
14754;SDS011;7469;50.906;6.952;2023-04-08T04:55:39;20.77;;;12.87;;
14754;SDS011;7469;50.906;6.952;2023-04-08T04:58:07;27.40;;;13.80;;
14754;SDS011;7469;50.906;6.952;2023-04-08T05:00:35;21.73;;;12.83;;
14754;SDS011;7469;50.906;6.952;2023-04-08T05:03:03;26.27;;;14.17;;
14754;SDS011;7469;50.906;6.952;2023-04-08T05:05:31;25.37;;;14.10;;
14754;SDS011;7469;50.906;6.952;2023-04-08T05:07:59;22.67;;;13.70;;
14754;SDS011;7469;50.906;6.952;2023-04-08T05:10:28;25.80;;;13.67;;
14754;SDS011;7469;50.906;6.952;2023-04-08T05:12:57;22.13;;;13.43;;
14754;SDS011;7469;50.906;6.952;2023-04-08T05:15:24;25.67;;;13.67;;
14754;SDS011;7469;50.906;6.952;2023-04-08T05:17:52;21.77;;;14.47;;
14754;SDS011;7469;50.906;6.952;2023-04-08T05:20:20;24.13;;;14.33;;
14754;SDS011;7469;50.906;6.952;2023-04-08T05:22:48;25.00;;;14.10;;
14754;SDS011;7469;50.906;6.952;2023-04-08T05:25:16;23.33;;;13.83;;
14754;SDS011;7469;50.906;6.952;2023-04-08T05:27:46;26.03;;;14.60;;
14754;SDS011;7469;50.906;6.952;2023-04-08T05:30:14;24.03;;;13.53;;
14754;SDS011;7469;50.906;6.952;2023-04-08T05:32:42;25.23;;;15.03;;
14754;SDS011;7469;50.906;6.952;2023-04-08T05:35:10;23.57;;;14.83;;
14754;SDS011;7469;50.906;6.952;2023-04-08T05:37:38;20.60;;;13.53;;
14754;SDS011;7469;50.906;6.952;2023-04-08T05:40:06;25.07;;;15.27;;
14754;SDS011;7469;50.906;6.952;2023-04-08T05:42:35;27.57;;;15.07;;
14754;SDS011;7469;50.906;6.952;2023-04-08T05:45:05;27.30;;;16.07;;
14754;SDS011;7469;50.906;6.952;2023-04-08T05:47:33;26.60;;;15.53;;
14754;SDS011;7469;50.906;6.952;2023-04-08T05:50:01;25.10;;;15.33;;
14754;SDS011;7469;50.906;6.952;2023-04-08T05:52:29;23.27;;;14.80;;
14754;SDS011;7469;50.906;6.952;2023-04-08T05:54:57;22.63;;;14.87;;
14754;SDS011;7469;50.906;6.952;2023-04-08T05:57:25;22.67;;;14.73;;
14754;SDS011;7469;50.906;6.952;2023-04-08T05:59:53;25.47;;;14.53;;
14754;SDS011;7469;50.906;6.952;2023-04-08T06:02:22;23.47;;;14.43;;
14754;SDS011;7469;50.906;6.952;2023-04-08T06:04:51;23.43;;;15.10;;
14754;SDS011;7469;50.906;6.952;2023-04-08T06:07:19;22.07;;;14.43;;
14754;SDS011;7469;50.906;6.952;2023-04-08T06:09:47;23.87;;;14.50;;
14754;SDS011;7469;50.906;6.952;2023-04-08T06:12:15;20.73;;;13.83;;
14754;SDS011;7469;50.906;6.952;2023-04-08T06:14:43;25.70;;;14.67;;
14754;SDS011;7469;50.906;6.952;2023-04-08T06:17:11;24.33;;;15.00;;
14754;SDS011;7469;50.906;6.952;2023-04-08T06:19:40;23.70;;;14.37;;
14754;SDS011;7469;50.906;6.952;2023-04-08T06:22:08;25.17;;;15.53;;
14754;SDS011;7469;50.906;6.952;2023-04-08T06:24:36;25.93;;;14.97;;
14754;SDS011;7469;50.906;6.952;2023-04-08T06:27:04;26.17;;;15.20;;
14754;SDS011;7469;50.906;6.952;2023-04-08T06:29:33;22.27;;;14.97;;
14754;SDS011;7469;50.906;6.952;2023-04-08T06:32:01;25.87;;;15.73;;
14754;SDS011;7469;50.906;6.952;2023-04-08T06:34:29;26.57;;;16.33;;
14754;SDS011;7469;50.906;6.952;2023-04-08T06:36:58;27.23;;;16.50;;
14754;SDS011;7469;50.906;6.952;2023-04-08T06:39:26;25.37;;;15.40;;
14754;SDS011;7469;50.906;6.952;2023-04-08T06:41:54;26.53;;;16.27;;
14754;SDS011;7469;50.906;6.952;2023-04-08T06:44:23;22.70;;;16.00;;
14754;SDS011;7469;50.906;6.952;2023-04-08T06:46:51;28.40;;;16.93;;
14754;SDS011;7469;50.906;6.952;2023-04-08T06:49:19;29.47;;;16.60;;
14754;SDS011;7469;50.906;6.952;2023-04-08T06:51:47;25.60;;;16.20;;
14754;SDS011;7469;50.906;6.952;2023-04-08T06:54:17;25.63;;;17.00;;
14754;SDS011;7469;50.906;6.952;2023-04-08T06:56:44;31.20;;;17.10;;
14754;SDS011;7469;50.906;6.952;2023-04-08T06:59:13;27.23;;;15.63;;
14754;SDS011;7469;50.906;6.952;2023-04-08T07:01:41;26.20;;;16.70;;
14754;SDS011;7469;50.906;6.952;2023-04-08T07:04:09;22.23;;;14.97;;
14754;SDS011;7469;50.906;6.952;2023-04-08T07:06:37;21.83;;;14.97;;
14754;SDS011;7469;50.906;6.952;2023-04-08T07:09:05;28.47;;;16.43;;
14754;SDS011;7469;50.906;6.952;2023-04-08T07:11:34;26.67;;;15.70;;
14754;SDS011;7469;50.906;6.952;2023-04-08T07:14:02;25.70;;;15.83;;
14754;SDS011;7469;50.906;6.952;2023-04-08T07:16:30;28.83;;;15.63;;
14754;SDS011;7469;50.906;6.952;2023-04-08T07:18:58;28.73;;;18.20;;
14754;SDS011;7469;50.906;6.952;2023-04-08T07:21:27;29.90;;;17.87;;
14754;SDS011;7469;50.906;6.952;2023-04-08T07:23:56;26.30;;;16.57;;
14754;SDS011;7469;50.906;6.952;2023-04-08T07:26:24;33.13;;;18.97;;
14754;SDS011;7469;50.906;6.952;2023-04-08T07:28:55;26.67;;;17.17;;
14754;SDS011;7469;50.906;6.952;2023-04-08T07:31:23;29.33;;;18.47;;
14754;SDS011;7469;50.906;6.952;2023-04-08T07:33:51;29.53;;;18.30;;
14754;SDS011;7469;50.906;6.952;2023-04-08T07:36:19;31.07;;;18.73;;
14754;SDS011;7469;50.906;6.952;2023-04-08T07:38:47;28.33;;;18.50;;
14754;SDS011;7469;50.906;6.952;2023-04-08T07:41:15;33.23;;;19.40;;
14754;SDS011;7469;50.906;6.952;2023-04-08T07:43:43;34.17;;;19.90;;
14754;SDS011;7469;50.906;6.952;2023-04-08T07:46:12;30.20;;;19.90;;
14754;SDS011;7469;50.906;6.952;2023-04-08T07:48:40;27.07;;;18.80;;
14754;SDS011;7469;50.906;6.952;2023-04-08T07:51:09;33.23;;;20.50;;
14754;SDS011;7469;50.906;6.952;2023-04-08T07:53:37;33.20;;;22.03;;
14754;SDS011;7469;50.906;6.952;2023-04-08T07:56:10;32.07;;;21.10;;
14754;SDS011;7469;50.906;6.952;2023-04-08T07:58:39;30.37;;;19.50;;
14754;SDS011;7469;50.906;6.952;2023-04-08T08:01:14;29.47;;;19.70;;
14754;SDS011;7469;50.906;6.952;2023-04-08T08:03:45;30.93;;;20.63;;
14754;SDS011;7469;50.906;6.952;2023-04-08T08:06:14;30.33;;;20.43;;
14754;SDS011;7469;50.906;6.952;2023-04-08T08:08:42;27.23;;;18.83;;
14754;SDS011;7469;50.906;6.952;2023-04-08T08:11:11;28.73;;;18.87;;
14754;SDS011;7469;50.906;6.952;2023-04-08T08:13:39;30.87;;;19.73;;
14754;SDS011;7469;50.906;6.952;2023-04-08T08:16:07;27.00;;;18.57;;
14754;SDS011;7469;50.906;6.952;2023-04-08T08:18:38;28.20;;;19.07;;
14754;SDS011;7469;50.906;6.952;2023-04-08T08:21:07;31.43;;;19.63;;
14754;SDS011;7469;50.906;6.952;2023-04-08T08:23:35;29.37;;;18.83;;
14754;SDS011;7469;50.906;6.952;2023-04-08T08:26:04;25.53;;;18.30;;
14754;SDS011;7469;50.906;6.952;2023-04-08T08:28:35;28.10;;;19.20;;
14754;SDS011;7469;50.906;6.952;2023-04-08T08:31:03;25.17;;;18.13;;
14754;SDS011;7469;50.906;6.952;2023-04-08T08:33:32;27.67;;;19.50;;
14754;SDS011;7469;50.906;6.952;2023-04-08T08:36:02;28.03;;;18.67;;
14754;SDS011;7469;50.906;6.952;2023-04-08T08:38:31;28.07;;;18.70;;
14754;SDS011;7469;50.906;6.952;2023-04-08T08:40:59;27.80;;;19.33;;
14754;SDS011;7469;50.906;6.952;2023-04-08T08:43:29;27.80;;;19.33;;
14754;SDS011;7469;50.906;6.952;2023-04-08T08:45:58;26.40;;;19.07;;
14754;SDS011;7469;50.906;6.952;2023-04-08T08:48:27;26.50;;;18.93;;
14754;SDS011;7469;50.906;6.952;2023-04-08T08:50:55;25.07;;;18.63;;
14754;SDS011;7469;50.906;6.952;2023-04-08T08:53:28;25.97;;;18.10;;
14754;SDS011;7469;50.906;6.952;2023-04-08T08:56:01;23.67;;;17.83;;
14754;SDS011;7469;50.906;6.952;2023-04-08T08:58:31;25.10;;;18.23;;
14754;SDS011;7469;50.906;6.952;2023-04-08T09:01:00;23.60;;;17.47;;
14754;SDS011;7469;50.906;6.952;2023-04-08T09:03:28;24.30;;;18.37;;
14754;SDS011;7469;50.906;6.952;2023-04-08T09:05:56;27.97;;;18.07;;
14754;SDS011;7469;50.906;6.952;2023-04-08T09:08:26;24.97;;;17.90;;
14754;SDS011;7469;50.906;6.952;2023-04-08T09:11:09;24.33;;;17.27;;
14754;SDS011;7469;50.906;6.952;2023-04-08T09:13:39;28.07;;;17.93;;
14754;SDS011;7469;50.906;6.952;2023-04-08T09:16:08;24.57;;;17.63;;
14754;SDS011;7469;50.906;6.952;2023-04-08T09:18:37;27.40;;;18.13;;
14754;SDS011;7469;50.906;6.952;2023-04-08T09:21:06;25.67;;;17.50;;
14754;SDS011;7469;50.906;6.952;2023-04-08T09:23:39;24.97;;;18.40;;
14754;SDS011;7469;50.906;6.952;2023-04-08T09:26:10;25.83;;;18.33;;
14754;SDS011;7469;50.906;6.952;2023-04-08T09:28:39;24.60;;;17.97;;
14754;SDS011;7469;50.906;6.952;2023-04-08T09:31:17;26.57;;;18.57;;
14754;SDS011;7469;50.906;6.952;2023-04-08T09:33:46;24.60;;;17.87;;
14754;SDS011;7469;50.906;6.952;2023-04-08T09:36:15;24.37;;;17.73;;
14754;SDS011;7469;50.906;6.952;2023-04-08T09:38:45;27.80;;;19.53;;
14754;SDS011;7469;50.906;6.952;2023-04-08T09:41:13;27.13;;;18.67;;
14754;SDS011;7469;50.906;6.952;2023-04-08T09:43:43;26.00;;;18.43;;
14754;SDS011;7469;50.906;6.952;2023-04-08T09:46:16;28.20;;;19.00;;
14754;SDS011;7469;50.906;6.952;2023-04-08T09:48:47;31.43;;;20.10;;
14754;SDS011;7469;50.906;6.952;2023-04-08T09:51:19;30.80;;;20.17;;
14754;SDS011;7469;50.906;6.952;2023-04-08T09:53:54;29.60;;;19.60;;
14754;SDS011;7469;50.906;6.952;2023-04-08T09:56:26;28.33;;;19.40;;
14754;SDS011;7469;50.906;6.952;2023-04-08T09:59:02;32.87;;;21.03;;
14754;SDS011;7469;50.906;6.952;2023-04-08T10:01:37;30.63;;;21.40;;
14754;SDS011;7469;50.906;6.952;2023-04-08T10:04:08;36.70;;;22.27;;
14754;SDS011;7469;50.906;6.952;2023-04-08T10:06:41;40.43;;;23.80;;
14754;SDS011;7469;50.906;6.952;2023-04-08T10:09:11;41.10;;;24.70;;
14754;SDS011;7469;50.906;6.952;2023-04-08T10:11:39;40.30;;;24.03;;
14754;SDS011;7469;50.906;6.952;2023-04-08T10:14:08;48.67;;;25.23;;
14754;SDS011;7469;50.906;6.952;2023-04-08T10:16:36;48.93;;;27.03;;
14754;SDS011;7469;50.906;6.952;2023-04-08T10:19:06;49.33;;;26.53;;
14754;SDS011;7469;50.906;6.952;2023-04-08T10:28:01;48.83;;;27.73;;
14754;SDS011;7469;50.906;6.952;2023-04-08T10:30:52;44.13;;;26.17;;
14754;SDS011;7469;50.906;6.952;2023-04-08T10:33:22;42.90;;;25.67;;
14754;SDS011;7469;50.906;6.952;2023-04-08T10:35:55;37.07;;;24.30;;
14754;SDS011;7469;50.906;6.952;2023-04-08T10:38:28;39.13;;;24.77;;
14754;SDS011;7469;50.906;6.952;2023-04-08T10:40:57;40.97;;;24.03;;
14754;SDS011;7469;50.906;6.952;2023-04-08T10:43:25;38.00;;;24.90;;
14754;SDS011;7469;50.906;6.952;2023-04-08T10:45:59;36.83;;;23.03;;
14754;SDS011;7469;50.906;6.952;2023-04-08T10:48:27;39.77;;;23.57;;
14754;SDS011;7469;50.906;6.952;2023-04-08T10:50:56;34.20;;;22.83;;
14754;SDS011;7469;50.906;6.952;2023-04-08T10:53:26;32.30;;;21.63;;
14754;SDS011;7469;50.906;6.952;2023-04-08T10:56:03;29.97;;;21.07;;
14754;SDS011;7469;50.906;6.952;2023-04-08T10:58:32;27.30;;;20.33;;
14754;SDS011;7469;50.906;6.952;2023-04-08T11:01:02;28.23;;;19.93;;
14754;SDS011;7469;50.906;6.952;2023-04-08T11:03:32;25.97;;;19.83;;
14754;SDS011;7469;50.906;6.952;2023-04-08T11:06:01;20.60;;;16.77;;
14754;SDS011;7469;50.906;6.952;2023-04-08T11:08:29;22.57;;;17.93;;
14754;SDS011;7469;50.906;6.952;2023-04-08T11:10:58;23.37;;;18.70;;
14754;SDS011;7469;50.906;6.952;2023-04-08T11:13:29;17.83;;;15.70;;
14754;SDS011;7469;50.906;6.952;2023-04-08T11:15:58;19.10;;;16.10;;
14754;SDS011;7469;50.906;6.952;2023-04-08T11:18:27;22.57;;;16.27;;
14754;SDS011;7469;50.906;6.952;2023-04-08T11:20:56;19.53;;;17.40;;
14754;SDS011;7469;50.906;6.952;2023-04-08T11:23:25;19.03;;;15.87;;
14754;SDS011;7469;50.906;6.952;2023-04-08T11:25:53;20.50;;;16.07;;
14754;SDS011;7469;50.906;6.952;2023-04-08T11:28:22;19.03;;;16.73;;
14754;SDS011;7469;50.906;6.952;2023-04-08T11:30:52;22.73;;;16.47;;
14754;SDS011;7469;50.906;6.952;2023-04-08T11:33:20;22.27;;;15.90;;
14754;SDS011;7469;50.906;6.952;2023-04-08T11:35:51;20.07;;;15.93;;
14754;SDS011;7469;50.906;6.952;2023-04-08T11:38:21;18.40;;;14.90;;
14754;SDS011;7469;50.906;6.952;2023-04-08T11:40:52;18.27;;;14.63;;
14754;SDS011;7469;50.906;6.952;2023-04-08T11:43:21;22.93;;;15.77;;
14754;SDS011;7469;50.906;6.952;2023-04-08T11:45:49;21.30;;;15.17;;
14754;SDS011;7469;50.906;6.952;2023-04-08T11:48:19;24.00;;;15.50;;
14754;SDS011;7469;50.906;6.952;2023-04-08T11:50:46;22.83;;;16.50;;
14754;SDS011;7469;50.906;6.952;2023-04-08T11:53:17;22.50;;;16.70;;
14754;SDS011;7469;50.906;6.952;2023-04-08T11:55:46;26.53;;;16.83;;
14754;SDS011;7469;50.906;6.952;2023-04-08T11:58:14;26.30;;;17.20;;
14754;SDS011;7469;50.906;6.952;2023-04-08T12:00:43;28.53;;;17.10;;
14754;SDS011;7469;50.906;6.952;2023-04-08T12:03:12;24.97;;;16.83;;
14754;SDS011;7469;50.906;6.952;2023-04-08T12:05:42;27.90;;;18.97;;
14754;SDS011;7469;50.906;6.952;2023-04-08T12:08:10;30.83;;;18.57;;
14754;SDS011;7469;50.906;6.952;2023-04-08T12:10:38;34.03;;;19.97;;
14754;SDS011;7469;50.906;6.952;2023-04-08T12:13:06;29.00;;;18.70;;
14754;SDS011;7469;50.906;6.952;2023-04-08T12:15:33;31.33;;;17.40;;
14754;SDS011;7469;50.906;6.952;2023-04-08T12:18:01;28.37;;;17.73;;
14754;SDS011;7469;50.906;6.952;2023-04-08T12:20:31;31.63;;;19.97;;
14754;SDS011;7469;50.906;6.952;2023-04-08T12:23:00;28.97;;;17.70;;
14754;SDS011;7469;50.906;6.952;2023-04-08T12:25:28;32.50;;;17.80;;
14754;SDS011;7469;50.906;6.952;2023-04-08T12:27:56;27.20;;;16.90;;
14754;SDS011;7469;50.906;6.952;2023-04-08T12:30:24;28.33;;;17.50;;
14754;SDS011;7469;50.906;6.952;2023-04-08T12:32:52;25.97;;;15.37;;
14754;SDS011;7469;50.906;6.952;2023-04-08T12:35:20;30.00;;;15.80;;
14754;SDS011;7469;50.906;6.952;2023-04-08T12:37:48;27.87;;;16.17;;
14754;SDS011;7469;50.906;6.952;2023-04-08T12:40:18;29.60;;;15.93;;
14754;SDS011;7469;50.906;6.952;2023-04-08T12:42:46;26.60;;;16.13;;
14754;SDS011;7469;50.906;6.952;2023-04-08T12:45:14;28.60;;;15.87;;
14754;SDS011;7469;50.906;6.952;2023-04-08T12:47:42;24.60;;;15.53;;
14754;SDS011;7469;50.906;6.952;2023-04-08T12:50:09;26.23;;;14.97;;
14754;SDS011;7469;50.906;6.952;2023-04-08T12:52:37;23.67;;;15.23;;
14754;SDS011;7469;50.906;6.952;2023-04-08T12:55:06;25.60;;;15.40;;
14754;SDS011;7469;50.906;6.952;2023-04-08T12:57:35;23.43;;;14.80;;
14754;SDS011;7469;50.906;6.952;2023-04-08T13:00:04;27.13;;;15.13;;
14754;SDS011;7469;50.906;6.952;2023-04-08T13:02:32;27.03;;;16.00;;
14754;SDS011;7469;50.906;6.952;2023-04-08T13:05:00;25.03;;;15.60;;
14754;SDS011;7469;50.906;6.952;2023-04-08T13:07:28;24.13;;;15.53;;
14754;SDS011;7469;50.906;6.952;2023-04-08T13:09:56;25.33;;;15.40;;
14754;SDS011;7469;50.906;6.952;2023-04-08T13:12:24;23.87;;;14.30;;
14754;SDS011;7469;50.906;6.952;2023-04-08T13:14:53;26.43;;;15.83;;
14754;SDS011;7469;50.906;6.952;2023-04-08T13:17:21;21.47;;;14.70;;
14754;SDS011;7469;50.906;6.952;2023-04-08T13:19:49;20.33;;;14.43;;
14754;SDS011;7469;50.906;6.952;2023-04-08T13:22:17;27.63;;;15.70;;
14754;SDS011;7469;50.906;6.952;2023-04-08T13:24:45;23.43;;;14.73;;
14754;SDS011;7469;50.906;6.952;2023-04-08T13:27:14;23.38;;;15.50;;
14754;SDS011;7469;50.906;6.952;2023-04-08T13:29:42;26.67;;;17.07;;
14754;SDS011;7469;50.906;6.952;2023-04-08T13:32:11;27.03;;;16.43;;
14754;SDS011;7469;50.906;6.952;2023-04-08T13:34:40;24.37;;;15.67;;
14754;SDS011;7469;50.906;6.952;2023-04-08T13:37:08;24.40;;;16.47;;
14754;SDS011;7469;50.906;6.952;2023-04-08T13:39:37;27.57;;;16.53;;
14754;SDS011;7469;50.906;6.952;2023-04-08T13:42:04;23.93;;;14.77;;
14754;SDS011;7469;50.906;6.952;2023-04-08T13:44:33;28.17;;;16.30;;
14754;SDS011;7469;50.906;6.952;2023-04-08T13:47:00;30.77;;;16.53;;
14754;SDS011;7469;50.906;6.952;2023-04-08T13:49:30;27.43;;;16.07;;
14754;SDS011;7469;50.906;6.952;2023-04-08T13:51:58;21.30;;;14.07;;
14754;SDS011;7469;50.906;6.952;2023-04-08T13:54:26;21.37;;;13.03;;
14754;SDS011;7469;50.906;6.952;2023-04-08T13:56:54;19.77;;;12.43;;
14754;SDS011;7469;50.906;6.952;2023-04-08T13:59:22;19.80;;;11.80;;
14754;SDS011;7469;50.906;6.952;2023-04-08T14:01:50;17.60;;;11.10;;
14754;SDS011;7469;50.906;6.952;2023-04-08T14:04:20;13.70;;;9.50;;
14754;SDS011;7469;50.906;6.952;2023-04-08T14:06:50;12.73;;;9.43;;
14754;SDS011;7469;50.906;6.952;2023-04-08T14:09:18;11.27;;;8.73;;
14754;SDS011;7469;50.906;6.952;2023-04-08T14:11:46;13.67;;;8.90;;
14754;SDS011;7469;50.906;6.952;2023-04-08T14:14:14;10.30;;;7.97;;
14754;SDS011;7469;50.906;6.952;2023-04-08T14:16:42;9.67;;;7.53;;
14754;SDS011;7469;50.906;6.952;2023-04-08T14:19:10;9.40;;;7.20;;
14754;SDS011;7469;50.906;6.952;2023-04-08T14:21:38;8.80;;;6.10;;
14754;SDS011;7469;50.906;6.952;2023-04-08T14:24:08;8.40;;;5.87;;
14754;SDS011;7469;50.906;6.952;2023-04-08T14:26:36;7.67;;;5.00;;
14754;SDS011;7469;50.906;6.952;2023-04-08T14:29:04;6.17;;;4.43;;
14754;SDS011;7469;50.906;6.952;2023-04-08T14:31:33;4.47;;;3.67;;
14754;SDS011;7469;50.906;6.952;2023-04-08T14:34:01;4.77;;;3.27;;
14754;SDS011;7469;50.906;6.952;2023-04-08T14:36:30;7.07;;;3.70;;
14754;SDS011;7469;50.906;6.952;2023-04-08T14:38:58;5.40;;;3.13;;
14754;SDS011;7469;50.906;6.952;2023-04-08T14:41:27;5.97;;;3.63;;
14754;SDS011;7469;50.906;6.952;2023-04-08T14:43:55;6.47;;;4.23;;
14754;SDS011;7469;50.906;6.952;2023-04-08T14:46:24;5.87;;;4.60;;
14754;SDS011;7469;50.906;6.952;2023-04-08T14:48:54;6.23;;;4.20;;
14754;SDS011;7469;50.906;6.952;2023-04-08T14:51:22;7.13;;;4.80;;
14754;SDS011;7469;50.906;6.952;2023-04-08T14:53:50;6.37;;;4.60;;
14754;SDS011;7469;50.906;6.952;2023-04-08T14:56:18;5.90;;;4.33;;